createdAt,value
2022-11-01T00:02:04.905Z,34.67
2022-11-01T00:04:32.288Z,26.83
2022-11-01T00:06:59.605Z,26.38
2022-11-01T00:09:26.917Z,21.30
2022-11-01T00:11:54.243Z,21.55
2022-11-01T00:14:21.718Z,17.75
2022-11-01T00:16:49.112Z,21.55
2022-11-01T00:19:16.564Z,17.75
2022-11-01T00:21:43.977Z,18.35
2022-11-01T00:24:11.380Z,18.75
2022-11-01T00:26:38.789Z,16.25
2022-11-01T00:29:06.274Z,17.02
2022-11-01T00:31:33.550Z,23.60
2022-11-01T00:34:03.875Z,21.65
2022-11-01T00:36:33.259Z,18.95
2022-11-01T00:39:00.642Z,24.08
2022-11-01T00:41:28.000Z,23.08
2022-11-01T00:43:55.312Z,25.23
2022-11-01T00:46:22.635Z,17.83
2022-11-01T00:48:49.915Z,24.38
2022-11-01T00:51:17.218Z,21.65
2022-11-01T00:53:44.471Z,22.42
2022-11-01T00:56:11.787Z,17.60
2022-11-01T00:58:39.119Z,17.33
2022-11-01T01:01:06.556Z,18.38
2022-11-01T01:03:34.100Z,17.73
2022-11-01T01:06:01.467Z,23.77
2022-11-01T01:08:28.785Z,23.75
2022-11-01T01:10:56.113Z,20.08
2022-11-01T01:13:23.463Z,21.83
2022-11-01T01:15:50.786Z,21.38
2022-11-01T01:18:18.118Z,19.63
2022-11-01T01:20:45.413Z,17.65
2022-11-01T01:23:12.775Z,18.40
2022-11-01T01:25:41.313Z,23.73
2022-11-01T01:28:09.045Z,18.45
2022-11-01T01:30:41.356Z,18.55
2022-11-01T01:33:09.309Z,18.58
2022-11-01T01:35:37.920Z,16.85
2022-11-01T01:38:05.903Z,19.65
2022-11-01T01:40:34.316Z,17.48
2022-11-01T01:43:01.622Z,20.15
2022-11-01T01:45:33.448Z,17.85
2022-11-01T01:48:24.969Z,19.65
2022-11-01T01:50:59.595Z,19.38
2022-11-01T01:53:28.134Z,21.48
2022-11-01T01:56:15.163Z,20.33
2022-11-01T01:58:46.621Z,15.35
2022-11-01T02:01:14.043Z,21.00
2022-11-01T02:03:41.469Z,16.27
2022-11-01T02:06:16.630Z,22.10
2022-11-01T02:08:45.982Z,19.13
2022-11-01T02:11:13.285Z,16.05
2022-11-01T02:13:40.656Z,17.45
2022-11-01T02:16:29.679Z,16.35
2022-11-01T02:19:14.825Z,19.23
2022-11-01T02:22:10.067Z,19.30
2022-11-01T02:24:56.117Z,17.67
2022-11-01T02:27:24.501Z,26.08
2022-11-01T02:30:07.046Z,16.20
2022-11-01T02:32:59.898Z,19.90
2022-11-01T02:35:36.557Z,15.27
2022-11-01T02:38:33.962Z,11.45
2022-11-01T02:41:22.776Z,12.63
2022-11-01T02:44:02.561Z,18.65
2022-11-01T02:46:54.214Z,15.55
2022-11-01T02:49:21.538Z,18.88
2022-11-01T02:51:48.837Z,18.35
2022-11-01T02:54:31.217Z,18.75
2022-11-01T02:57:15.544Z,16.30
2022-11-01T02:59:44.841Z,14.48
2022-11-01T03:02:21.141Z,18.90
2022-11-01T03:04:48.481Z,14.10
2022-11-01T03:07:15.769Z,16.63
2022-11-01T03:09:43.137Z,12.88
2022-11-01T03:12:19.923Z,16.98
2022-11-01T03:14:54.742Z,12.45
2022-11-01T03:17:35.428Z,11.70
2022-11-01T03:20:05.488Z,17.15
2022-11-01T03:22:32.737Z,17.20
2022-11-01T03:25:31.657Z,17.48
2022-11-01T03:28:00.168Z,12.75
2022-11-01T03:30:27.465Z,12.18
2022-11-01T03:32:56.021Z,17.70
2022-11-01T03:35:35.790Z,14.15
2022-11-01T03:38:05.892Z,15.27
2022-11-01T03:40:33.204Z,12.80
2022-11-01T03:43:05.964Z,14.15
2022-11-01T03:45:34.194Z,8.90
2022-11-01T03:48:01.929Z,14.45
2022-11-01T03:50:29.522Z,10.95
2022-11-01T03:52:56.943Z,12.60
2022-11-01T03:55:24.441Z,13.15
2022-11-01T03:57:57.136Z,10.88
2022-11-01T04:00:29.819Z,13.35
2022-11-01T04:02:57.623Z,14.32
2022-11-01T04:05:26.347Z,16.35
2022-11-01T04:07:53.768Z,14.40
2022-11-01T04:10:21.640Z,13.70
2022-11-01T04:12:49.661Z,18.25
2022-11-01T04:15:36.154Z,18.23
2022-11-01T04:18:25.978Z,10.93
2022-11-01T04:20:53.792Z,15.10
2022-11-01T04:23:21.143Z,18.27
2022-11-01T04:25:48.477Z,17.83
2022-11-01T04:28:16.023Z,16.27
2022-11-01T04:30:43.885Z,13.23
2022-11-01T04:33:11.270Z,14.63
2022-11-01T04:35:38.862Z,11.38
2022-11-01T04:38:06.639Z,15.15
2022-11-01T04:40:34.434Z,17.55
2022-11-01T04:43:01.758Z,16.33
2022-11-01T04:45:29.075Z,16.73
2022-11-01T04:48:03.748Z,10.10
2022-11-01T04:50:31.590Z,15.32
2022-11-01T04:52:59.934Z,9.98
2022-11-01T04:55:28.021Z,14.80
2022-11-01T04:57:55.473Z,17.58
2022-11-01T05:00:25.844Z,12.55
2022-11-01T05:02:53.182Z,14.02
2022-11-01T05:05:20.497Z,11.95
2022-11-01T05:07:47.782Z,17.35
2022-11-01T05:10:15.089Z,14.63
2022-11-01T05:12:42.341Z,17.25
2022-11-01T05:15:09.806Z,15.07
2022-11-01T05:17:41.764Z,14.93
2022-11-01T05:20:10.069Z,15.48
2022-11-01T05:22:37.642Z,13.30
2022-11-01T05:25:05.360Z,12.23
2022-11-01T05:27:32.657Z,17.88
2022-11-01T05:30:00.093Z,11.95
2022-11-01T05:32:27.531Z,12.98
2022-11-01T05:34:54.874Z,11.32
2022-11-01T05:37:25.787Z,16.35
2022-11-01T05:39:55.283Z,13.48
2022-11-01T05:42:22.569Z,15.57
2022-11-01T05:44:49.844Z,16.48
2022-11-01T05:47:17.649Z,12.13
2022-11-01T05:49:45.003Z,14.25
2022-11-01T05:52:12.313Z,11.45
2022-11-01T05:54:39.622Z,14.60
2022-11-01T05:57:06.897Z,12.80
2022-11-01T05:59:34.313Z,11.68
2022-11-01T06:02:01.697Z,12.68
2022-11-01T06:04:29.151Z,11.95
2022-11-01T06:06:56.424Z,13.10
2022-11-01T06:09:23.750Z,16.58
2022-11-01T06:11:51.018Z,16.52
2022-11-01T06:14:18.876Z,14.48
2022-11-01T06:16:46.286Z,11.45
2022-11-01T06:19:13.546Z,9.50
2022-11-01T06:21:40.852Z,14.93
2022-11-01T06:24:08.343Z,10.55
2022-11-01T06:26:35.719Z,10.75
2022-11-01T06:29:03.149Z,15.25
2022-11-01T06:31:30.505Z,15.80
2022-11-01T06:33:57.809Z,18.98
2022-11-01T06:36:25.227Z,12.52
2022-11-01T06:38:52.937Z,12.90
2022-11-01T06:41:20.217Z,22.75
2022-11-01T06:43:50.656Z,15.77
2022-11-01T06:46:18.018Z,14.15
2022-11-01T06:48:48.024Z,17.75
2022-11-01T06:51:15.338Z,11.45
2022-11-01T06:53:42.656Z,10.63
2022-11-01T06:56:09.959Z,10.55
2022-11-01T06:58:37.435Z,10.48
2022-11-01T07:01:05.071Z,13.40
2022-11-01T07:03:33.177Z,11.60
2022-11-01T07:06:00.710Z,6.93
2022-11-01T07:08:28.070Z,11.18
2022-11-01T07:10:55.648Z,12.27
2022-11-01T07:13:22.928Z,10.55
2022-11-01T07:15:50.292Z,11.07
2022-11-01T07:18:17.591Z,11.82
2022-11-01T07:23:17.438Z,13.98
2022-11-01T07:25:44.771Z,10.65
2022-11-01T07:28:12.239Z,12.43
2022-11-01T07:30:39.558Z,15.18
2022-11-01T07:33:07.237Z,8.43
2022-11-01T07:35:35.075Z,13.57
2022-11-01T07:38:05.062Z,10.10
2022-11-01T07:40:35.872Z,11.40
2022-11-01T07:43:03.809Z,12.32
2022-11-01T07:45:32.154Z,9.80
2022-11-01T07:48:02.651Z,9.90
2022-11-01T07:50:31.431Z,9.68
2022-11-01T07:53:02.354Z,11.32
2022-11-01T07:55:29.768Z,11.98
2022-11-01T07:57:57.056Z,16.23
2022-11-01T08:00:24.583Z,9.93
2022-11-01T08:02:51.976Z,12.35
2022-11-01T08:05:19.302Z,12.15
2022-11-01T08:07:46.596Z,11.55
2022-11-01T08:10:13.972Z,10.07
2022-11-01T08:12:41.253Z,9.05
2022-11-01T08:15:09.952Z,11.25
2022-11-01T08:17:37.349Z,17.20
2022-11-01T08:20:05.455Z,12.30
2022-11-01T08:22:33.258Z,19.95
2022-11-01T08:25:00.556Z,14.85
2022-11-01T08:27:30.323Z,15.13
2022-11-01T08:30:00.451Z,15.07
2022-11-01T08:32:27.779Z,13.65
2022-11-01T08:34:55.127Z,12.38
2022-11-01T08:37:22.438Z,16.83
2022-11-01T08:39:49.749Z,17.20
2022-11-01T08:42:17.058Z,18.48
2022-11-01T08:44:44.333Z,14.65
2022-11-01T08:47:11.642Z,21.33
2022-11-01T08:49:38.969Z,20.42
2022-11-01T08:52:06.304Z,20.20
2022-11-01T08:54:34.323Z,21.73
2022-11-01T08:57:02.698Z,12.65
2022-11-01T08:59:30.009Z,20.00
2022-11-01T09:01:57.513Z,17.25
2022-11-01T09:04:24.920Z,11.75
2022-11-01T09:06:52.266Z,14.85
2022-11-01T09:09:19.621Z,19.08
2022-11-01T09:11:46.923Z,10.20
2022-11-01T09:14:14.200Z,13.88
2022-11-01T09:16:41.528Z,16.80
2022-11-01T09:19:08.826Z,16.63
2022-11-01T09:21:36.267Z,19.55
2022-11-01T09:24:03.942Z,13.75
2022-11-01T09:26:31.250Z,15.48
2022-11-01T09:28:58.772Z,18.25
2022-11-01T09:31:26.171Z,13.43
2022-11-01T09:33:57.385Z,15.07
2022-11-01T09:36:25.204Z,20.52
2022-11-01T09:38:52.581Z,14.10
2022-11-01T09:41:47.327Z,12.27
2022-11-01T09:44:29.564Z,13.93
2022-11-01T09:47:04.877Z,14.20
2022-11-01T09:49:33.581Z,14.38
2022-11-01T09:52:00.901Z,11.75
2022-11-01T09:54:28.272Z,17.25
2022-11-01T09:57:17.131Z,14.55
2022-11-01T09:59:44.489Z,12.82
2022-11-01T10:02:42.089Z,13.70
2022-11-01T10:05:27.216Z,12.95
2022-11-01T10:08:07.497Z,12.80
2022-11-01T10:10:49.247Z,14.55
2022-11-01T10:13:44.628Z,17.00
2022-11-01T10:16:32.228Z,21.05
2022-11-01T10:19:16.181Z,14.02
2022-11-01T10:21:50.374Z,13.97
2022-11-01T10:24:46.575Z,13.23
2022-11-01T10:27:16.374Z,12.43
2022-11-01T10:30:01.862Z,14.07
2022-11-01T10:32:47.989Z,10.32
2022-11-01T10:35:22.611Z,10.55
2022-11-01T10:38:26.546Z,10.52
2022-11-01T10:41:32.333Z,7.63
2022-11-01T10:44:03.683Z,11.07
2022-11-01T10:46:39.812Z,14.18
2022-11-01T10:49:14.768Z,11.73
2022-11-01T10:51:42.147Z,8.57
2022-11-01T10:54:16.185Z,9.63
2022-11-01T10:56:45.960Z,10.07
2022-11-01T10:59:22.998Z,10.13
2022-11-01T11:01:50.921Z,9.40
2022-11-01T11:04:23.442Z,12.50
2022-11-01T11:06:51.489Z,10.65
2022-11-01T11:09:32.686Z,8.88
2022-11-01T11:12:15.257Z,8.82
2022-11-01T11:14:42.756Z,11.32
2022-11-01T11:17:29.033Z,11.75
2022-11-01T11:20:00.417Z,7.65
2022-11-01T11:22:27.688Z,13.10
2022-11-01T11:24:58.149Z,8.70
2022-11-01T11:27:32.854Z,9.93
2022-11-01T11:30:07.684Z,6.07
2022-11-01T11:32:37.044Z,11.68
2022-11-01T11:35:04.427Z,8.13
2022-11-01T11:37:33.583Z,11.93
2022-11-01T11:40:26.884Z,10.57
2022-11-01T11:42:55.793Z,11.57
2022-11-01T11:45:30.176Z,6.82
2022-11-01T11:50:33.737Z,7.03
2022-11-01T11:53:07.075Z,10.45
2022-11-01T11:56:08.363Z,8.68
2022-11-01T11:58:40.875Z,6.03
2022-11-01T12:01:10.233Z,6.10
2022-11-01T12:03:49.438Z,9.02
2022-11-01T12:06:20.916Z,7.32
2022-11-01T12:08:53.390Z,8.90
2022-11-01T12:11:21.830Z,6.22
2022-11-01T12:14:03.082Z,7.97
2022-11-01T12:16:30.549Z,5.85
2022-11-01T12:18:59.740Z,4.22
2022-11-01T12:21:45.133Z,6.05
2022-11-01T12:24:27.068Z,3.58
2022-11-01T12:26:55.952Z,6.45
2022-11-01T12:29:36.802Z,5.80
2022-11-01T12:32:25.670Z,3.63
2022-11-01T12:34:53.093Z,7.53
2022-11-01T12:37:26.017Z,7.85
2022-11-01T12:40:01.837Z,4.80
2022-11-01T12:42:33.895Z,7.57
2022-11-01T12:45:05.381Z,11.50
2022-11-01T12:47:37.701Z,4.13
2022-11-01T12:50:06.440Z,3.95
2022-11-01T12:52:52.019Z,5.72
2022-11-01T12:55:35.521Z,7.70
2022-11-01T12:58:04.145Z,4.70
2022-11-01T13:00:41.461Z,6.30
2022-11-01T13:03:08.764Z,4.45
2022-11-01T13:05:57.133Z,6.40
2022-11-01T13:08:30.245Z,6.47
2022-11-01T13:11:00.533Z,9.77
2022-11-01T13:13:33.176Z,7.95
2022-11-01T13:16:09.390Z,6.03
2022-11-01T13:18:47.698Z,4.53
2022-11-01T13:21:58.280Z,7.45
2022-11-01T13:24:40.339Z,4.28
2022-11-01T13:27:12.372Z,7.97
2022-11-01T13:30:01.436Z,4.65
2022-11-01T13:33:00.464Z,12.02
2022-11-01T13:35:40.123Z,5.72
2022-11-01T13:38:13.312Z,6.38
2022-11-01T13:40:43.610Z,7.38
2022-11-01T13:43:13.200Z,6.65
2022-11-01T13:45:56.337Z,6.88
2022-11-01T13:48:46.504Z,5.50
2022-11-01T13:51:25.750Z,6.20
2022-11-01T13:53:57.790Z,8.40
2022-11-01T13:56:32.317Z,8.80
2022-11-01T13:58:59.795Z,10.00
2022-11-01T14:01:31.205Z,6.82
2022-11-01T14:04:16.932Z,8.73
2022-11-01T14:06:51.416Z,9.50
2022-11-01T14:12:16.761Z,10.00
2022-11-01T14:14:47.046Z,6.32
2022-11-01T14:17:56.008Z,6.03
2022-11-01T14:20:26.434Z,10.95
2022-11-01T14:22:54.445Z,10.85
2022-11-01T14:25:31.585Z,8.75
2022-11-01T14:28:17.232Z,9.98
2022-11-01T14:30:46.233Z,10.40
2022-11-01T14:33:18.380Z,10.23
2022-11-01T14:35:55.815Z,6.57
2022-11-01T14:38:28.683Z,7.95
2022-11-01T14:40:56.813Z,5.22
2022-11-01T14:43:33.918Z,6.88
2022-11-01T14:46:03.094Z,11.75
2022-11-01T14:48:37.050Z,5.38
2022-11-01T14:51:25.230Z,6.60
2022-11-01T14:54:28.755Z,6.03
2022-11-01T14:56:56.919Z,12.32
2022-11-01T14:59:25.104Z,13.48
2022-11-01T15:01:59.484Z,5.78
2022-11-01T15:04:44.186Z,9.52
2022-11-01T15:07:19.731Z,7.60
2022-11-01T15:10:10.638Z,10.05
2022-11-01T15:12:51.654Z,6.80
2022-11-01T15:15:30.585Z,5.38
2022-11-01T15:18:00.353Z,5.43
2022-11-01T15:20:35.530Z,6.60
2022-11-01T15:23:19.653Z,6.63
2022-11-01T15:25:53.632Z,9.20
2022-11-01T15:28:25.958Z,7.78
2022-11-01T15:30:58.205Z,7.28
2022-11-01T15:33:28.050Z,7.40
2022-11-01T15:35:56.536Z,9.23
2022-11-01T15:38:23.779Z,6.05
2022-11-01T15:40:52.196Z,13.18
2022-11-01T15:43:21.674Z,6.93
2022-11-01T15:46:13.134Z,5.75
2022-11-01T15:48:40.465Z,7.05
2022-11-01T15:51:09.020Z,7.97
2022-11-01T15:53:36.485Z,6.13
2022-11-01T15:56:25.901Z,4.75
2022-11-01T15:58:55.374Z,9.63
2022-11-01T16:01:23.406Z,6.95
2022-11-01T16:04:03.098Z,12.90
2022-11-01T16:06:40.435Z,10.23
2022-11-01T16:09:31.871Z,7.32
2022-11-01T16:12:00.423Z,7.63
2022-11-01T16:14:33.534Z,8.23
2022-11-01T16:17:06.432Z,8.15
2022-11-01T16:19:45.093Z,9.15
2022-11-01T16:22:41.926Z,8.25
2022-11-01T16:25:12.049Z,11.70
2022-11-01T16:27:58.775Z,9.13
2022-11-01T16:30:39.090Z,8.75
2022-11-01T16:33:17.054Z,10.68
2022-11-01T16:35:44.850Z,6.18
2022-11-01T16:38:25.122Z,8.30
2022-11-01T16:40:57.105Z,8.55
2022-11-01T16:43:28.818Z,8.48
2022-11-01T16:45:56.209Z,9.95
2022-11-01T16:48:25.606Z,10.02
2022-11-01T16:50:54.001Z,9.35
2022-11-01T16:53:22.336Z,8.52
2022-11-01T16:55:49.726Z,8.60
2022-11-01T16:58:19.257Z,11.23
2022-11-01T17:00:55.529Z,6.60
2022-11-01T17:03:22.940Z,8.77
2022-11-01T17:05:55.162Z,10.15
2022-11-01T17:08:24.717Z,7.43
2022-11-01T17:10:52.093Z,12.13
2022-11-01T17:13:19.501Z,12.63
2022-11-01T17:15:50.504Z,11.50
2022-11-01T17:18:36.733Z,7.53
2022-11-01T17:21:06.093Z,8.00
2022-11-01T17:23:34.598Z,9.07
2022-11-01T17:26:02.788Z,7.38
2022-11-01T17:28:30.138Z,12.45
2022-11-01T17:30:57.478Z,11.52
2022-11-01T17:33:24.805Z,7.60
2022-11-01T17:35:52.169Z,14.60
2022-11-01T17:38:38.096Z,8.65
2022-11-01T17:41:14.806Z,10.10
2022-11-01T17:43:42.225Z,9.90
2022-11-01T17:46:17.797Z,17.70
2022-11-01T17:48:45.135Z,8.02
2022-11-01T17:51:12.503Z,11.45
2022-11-01T17:53:42.121Z,9.05
2022-11-01T17:56:09.719Z,13.43
2022-11-01T17:58:37.137Z,16.85
2022-11-01T18:01:05.039Z,11.35
2022-11-01T18:03:32.397Z,30.50
2022-11-01T18:05:59.783Z,16.83
2022-11-01T18:08:28.003Z,12.63
2022-11-01T18:11:01.418Z,11.15
2022-11-01T18:13:38.406Z,8.85
2022-11-01T18:16:08.434Z,21.45
2022-11-01T18:19:00.499Z,9.40
2022-11-01T18:21:31.885Z,15.90
2022-11-01T18:24:03.595Z,13.57
2022-11-01T18:26:31.020Z,13.10
2022-11-01T18:29:23.923Z,9.10
2022-11-01T18:32:03.510Z,6.65
2022-11-01T18:34:34.477Z,9.57
2022-11-01T18:37:09.034Z,9.07
2022-11-01T18:39:38.029Z,9.98
2022-11-01T18:42:09.264Z,8.98
2022-11-01T18:44:37.648Z,12.07
2022-11-01T18:47:11.809Z,12.60
2022-11-01T18:49:39.105Z,14.55
2022-11-01T18:52:14.768Z,12.80
2022-11-01T18:54:56.752Z,9.70
2022-11-01T18:57:24.846Z,9.60
2022-11-01T18:59:53.218Z,11.73
2022-11-01T19:02:27.107Z,11.98
2022-11-01T19:05:17.792Z,10.65
2022-11-01T19:08:09.517Z,9.55
2022-11-01T19:10:35.281Z,13.70
2022-11-01T19:13:02.670Z,9.68
2022-11-01T19:15:30.554Z,14.68
2022-11-01T19:17:59.073Z,11.38
2022-11-01T19:20:38.851Z,16.65
2022-11-01T19:23:11.873Z,8.18
2022-11-01T19:25:39.181Z,9.10
2022-11-01T19:28:27.696Z,10.15
2022-11-01T19:30:56.123Z,10.52
2022-11-01T19:33:38.723Z,11.57
2022-11-01T19:36:13.025Z,10.93
2022-11-01T19:38:44.857Z,9.88
2022-11-01T19:41:14.341Z,7.25
2022-11-01T19:43:41.594Z,10.00
2022-11-01T19:46:11.393Z,14.05
2022-11-01T19:48:38.681Z,13.20
2022-11-01T19:51:18.510Z,13.23
2022-11-01T19:53:45.896Z,17.33
2022-11-01T19:56:14.309Z,14.88
2022-11-01T19:58:48.867Z,14.43
2022-11-01T20:01:19.941Z,11.95
2022-11-01T20:04:24.566Z,14.27
2022-11-01T20:07:00.986Z,10.73
2022-11-01T20:09:33.365Z,14.15
2022-11-01T20:12:00.716Z,18.27
2022-11-01T20:14:28.095Z,11.05
2022-11-01T20:16:55.493Z,10.23
2022-11-01T20:19:22.826Z,10.73
2022-11-01T20:21:50.150Z,12.18
2022-11-01T20:24:17.554Z,10.15
2022-11-01T20:26:44.956Z,7.05
2022-11-01T20:29:12.294Z,10.02
2022-11-01T20:31:39.603Z,13.32
2022-11-01T20:34:09.160Z,14.45
2022-11-01T20:36:36.534Z,10.35
2022-11-01T20:39:04.037Z,11.77
2022-11-01T20:41:31.585Z,15.60
2022-11-01T20:43:59.077Z,32.75
2022-11-01T20:46:26.372Z,12.88
2022-11-01T20:48:53.760Z,15.68
2022-11-01T20:51:21.132Z,18.13
2022-11-01T20:53:48.415Z,13.80
2022-11-01T20:56:15.760Z,12.30
2022-11-01T20:58:43.099Z,13.82
2022-11-01T21:01:15.717Z,13.35
2022-11-01T21:03:43.403Z,12.48
2022-11-01T21:06:15.301Z,16.23
2022-11-01T21:08:47.049Z,13.02
2022-11-01T21:11:43.713Z,11.98
2022-11-01T21:14:16.664Z,16.08
2022-11-01T21:16:44.174Z,16.58
2022-11-01T21:19:20.326Z,14.10
2022-11-01T21:21:50.461Z,19.65
2022-11-01T21:24:30.731Z,17.30
2022-11-01T21:27:13.351Z,12.45
2022-11-01T21:29:44.887Z,9.48
2022-11-01T21:32:39.829Z,10.27
2022-11-01T21:35:20.755Z,9.98
2022-11-01T21:37:48.386Z,12.23
2022-11-01T21:40:28.976Z,11.85
2022-11-01T21:42:56.568Z,10.07
2022-11-01T21:45:30.880Z,14.05
2022-11-01T21:48:19.904Z,10.50
2022-11-01T21:50:47.474Z,13.68
2022-11-01T21:53:14.812Z,15.30
2022-11-01T21:55:42.117Z,12.60
2022-11-01T21:58:09.406Z,11.80
2022-11-01T22:00:36.693Z,12.02
2022-11-01T22:03:04.179Z,8.45
2022-11-01T22:05:31.600Z,10.85
2022-11-01T22:07:58.884Z,12.07
2022-11-01T22:10:26.177Z,16.02
2022-11-01T22:12:53.516Z,12.07
2022-11-01T22:15:20.772Z,12.60
2022-11-01T22:17:48.081Z,12.27
2022-11-01T22:20:15.447Z,12.32
2022-11-01T22:22:42.761Z,12.10
2022-11-01T22:25:10.627Z,13.27
2022-11-01T22:27:38.016Z,11.27
2022-11-01T22:30:06.039Z,11.82
2022-11-01T22:32:33.357Z,9.88
2022-11-01T22:35:00.665Z,12.25
2022-11-01T22:37:28.843Z,8.18
2022-11-01T22:39:56.161Z,11.07
2022-11-01T22:42:24.532Z,12.25
2022-11-01T22:44:51.830Z,11.20
2022-11-01T22:47:26.637Z,17.73
2022-11-01T22:49:55.692Z,16.13
2022-11-01T22:52:33.740Z,10.43
2022-11-01T22:55:10.911Z,6.82
2022-11-01T22:57:48.893Z,9.75
2022-11-01T23:00:30.918Z,13.77
2022-11-01T23:03:11.238Z,9.68
2022-11-01T23:05:38.526Z,12.57
2022-11-01T23:08:33.056Z,13.57
2022-11-01T23:11:00.494Z,15.10
2022-11-01T23:13:50.213Z,6.78
2022-11-01T23:16:32.099Z,14.20
2022-11-01T23:19:03.562Z,9.98
2022-11-01T23:21:30.893Z,10.73
2022-11-01T23:23:58.233Z,11.13
2022-11-01T23:26:25.947Z,13.00
2022-11-01T23:28:53.984Z,9.77
2022-11-01T23:31:21.542Z,9.40
2022-11-01T23:33:49.024Z,9.68
2022-11-01T23:36:32.141Z,10.27
2022-11-01T23:39:00.362Z,13.32
2022-11-01T23:41:36.073Z,9.13
2022-11-01T23:44:10.735Z,11.07
2022-11-01T23:46:38.064Z,9.90
2022-11-01T23:49:23.477Z,13.55
2022-11-01T23:51:51.107Z,9.02
2022-11-01T23:54:33.390Z,10.88
2022-11-01T23:57:00.805Z,11.05
2022-11-01T23:59:28.130Z,9.40
